createdAt,value
2016-12-25T02:26:39.893Z,86.84
2016-12-25T02:32:38.014Z,86.89
2016-12-25T02:46:27.369Z,86.38
2016-12-25T03:48:12.197Z,88.11
2016-12-25T03:52:20.241Z,88.35
2016-12-25T03:56:33.344Z,88.59
2016-12-25T04:13:51.016Z,89.01
2016-12-25T04:16:04.521Z,88.84
2016-12-25T04:19:46.433Z,88.79
2016-12-25T04:22:21.197Z,88.63
2016-12-25T04:32:31.822Z,88.22
2016-12-25T04:41:41.966Z,88.05
2016-12-25T04:43:00.777Z,87.93
2016-12-25T04:57:38.417Z,87.47
2016-12-25T05:00:45.366Z,87.27
2016-12-25T05:01:11.947Z,87.27
2016-12-25T05:17:45.038Z,86.93
2016-12-25T05:19:41.817Z,86.89
2016-12-25T05:23:21.086Z,86.87
2016-12-25T05:30:25.362Z,86.89
2016-12-25T06:04:50.635Z,85.79
2016-12-25T06:28:10.504Z,85.24
2016-12-25T06:28:32.481Z,85.07
2016-12-25T06:29:49.165Z,85.06
2016-12-25T06:31:03.416Z,85.04
2016-12-25T06:35:17.108Z,85.15
2016-12-25T06:46:19.183Z,84.72
2016-12-25T06:46:56.246Z,84.70
2016-12-25T06:47:25.654Z,84.75
2016-12-25T06:47:59.551Z,84.79
2016-12-25T06:48:26.068Z,84.88
2016-12-25T06:49:00.783Z,84.99
2016-12-25T06:49:33.089Z,84.91
2016-12-25T06:49:54.887Z,84.92
2016-12-25T06:50:57.745Z,84.86
2016-12-25T06:51:26.879Z,84.83
2016-12-25T06:53:10.893Z,84.86
2016-12-25T06:54:33.285Z,84.71
2016-12-25T06:57:06.472Z,84.79
2016-12-25T07:00:22.280Z,84.67
2016-12-25T07:00:49.622Z,84.60
2016-12-25T07:02:29.268Z,84.74
2016-12-25T07:03:02.530Z,84.75
2016-12-25T07:03:51.790Z,84.77
2016-12-25T07:04:54.332Z,84.76
2016-12-25T07:05:17.078Z,84.75
2016-12-25T07:05:38.825Z,84.73
2016-12-25T07:06:01.591Z,84.75
2016-12-25T07:06:23.354Z,84.83
2016-12-25T07:06:54.640Z,84.77
2016-12-25T07:07:16.399Z,84.79
2016-12-25T07:07:38.161Z,84.80
2016-12-25T07:08:04.659Z,84.83
2016-12-25T07:08:27.398Z,84.82
2016-12-25T07:08:50.138Z,84.84
2016-12-25T07:11:09.399Z,84.86
2016-12-25T07:11:40.690Z,84.89
2016-12-25T07:12:54.284Z,85.11
2016-12-25T07:13:56.776Z,85.02
2016-12-25T07:15:41.155Z,84.95
2016-12-25T07:17:26.354Z,85.07
2016-12-25T07:43:52.817Z,86.68
2016-12-25T07:44:14.766Z,86.74
2016-12-25T07:44:37.535Z,86.91
2016-12-25T07:56:07.961Z,88.59
2016-12-25T08:56:59.537Z,88.38
2016-12-25T08:57:21.447Z,88.44
2016-12-25T08:57:43.230Z,88.51
2016-12-25T08:58:04.978Z,88.52
2016-12-25T08:58:26.729Z,88.50
2016-12-25T08:58:48.485Z,88.36
2016-12-25T08:59:10.219Z,88.26
2016-12-25T09:00:03.273Z,88.31
2016-12-25T09:00:25.017Z,88.23
2016-12-25T09:00:46.751Z,88.24
2016-12-25T09:01:08.508Z,88.29
2016-12-25T09:01:30.245Z,88.34
2016-12-25T09:01:51.993Z,88.28
2016-12-25T09:02:13.739Z,88.33
2016-12-25T09:02:35.487Z,88.14
2016-12-25T09:03:01.990Z,88.23
2016-12-25T09:03:23.721Z,88.21
2016-12-25T09:03:45.484Z,88.26
2016-12-25T09:04:07.252Z,88.26
2016-12-25T09:04:33.762Z,88.13
2016-12-25T09:04:55.516Z,88.10
2016-12-25T09:05:17.247Z,88.13
2016-12-25T09:05:38.980Z,88.19
2016-12-25T09:06:00.732Z,88.23
2016-12-25T09:06:22.902Z,88.22
2016-12-25T09:06:45.200Z,88.16
2016-12-25T09:07:06.933Z,88.15
2016-12-25T09:07:55.225Z,88.05
2016-12-25T09:08:17.006Z,88.07
2016-12-25T09:08:38.807Z,88.10
2016-12-25T09:09:00.560Z,87.88
2016-12-25T09:09:27.289Z,87.85
2016-12-25T09:09:49.903Z,87.89
2016-12-25T09:10:11.644Z,87.85
2016-12-25T09:10:33.408Z,87.76
2016-12-25T09:10:55.303Z,87.74
2016-12-25T09:11:21.944Z,87.77
2016-12-25T09:11:44.212Z,87.72
2016-12-25T09:12:06.332Z,87.77
2016-12-25T09:12:28.072Z,87.76
2016-12-25T09:12:49.847Z,87.73
2016-12-25T09:13:11.598Z,87.61
2016-12-25T09:13:33.366Z,87.58
2016-12-25T09:13:55.105Z,87.61
2016-12-25T09:14:16.882Z,87.38
2016-12-25T09:14:38.636Z,87.43
2016-12-25T09:15:00.373Z,87.50
2016-12-25T09:15:22.213Z,87.47
2016-12-25T09:15:44.001Z,87.47
2016-12-25T09:16:05.769Z,87.48
2016-12-25T09:16:27.526Z,87.38
2016-12-25T09:16:49.283Z,87.43
2016-12-25T09:17:12.020Z,87.45
2016-12-25T09:17:38.527Z,87.41
2016-12-25T09:18:00.400Z,87.56
2016-12-25T09:18:22.147Z,87.55
2016-12-25T09:18:43.907Z,87.40
2016-12-25T09:19:05.680Z,87.39
2016-12-25T09:19:27.449Z,87.32
2016-12-25T09:19:49.214Z,87.39
2016-12-25T09:20:10.946Z,87.42
2016-12-25T09:20:32.707Z,87.40
2016-12-25T09:20:54.455Z,87.46
2016-12-25T09:21:16.777Z,87.23
2016-12-25T09:21:38.936Z,87.18
2016-12-25T09:22:01.064Z,87.08
2016-12-25T09:22:27.566Z,87.13
2016-12-25T09:22:49.327Z,87.22
2016-12-25T09:23:11.105Z,87.30
2016-12-25T09:24:00.373Z,87.16
2016-12-25T09:24:22.123Z,87.10
2016-12-25T09:24:43.873Z,86.92
2016-12-25T09:25:05.654Z,86.84
2016-12-25T09:25:27.413Z,86.74
2016-12-25T09:25:49.147Z,86.74
2016-12-25T09:26:10.962Z,86.79
2016-12-25T09:26:32.735Z,86.84
2016-12-25T09:26:54.535Z,86.72
2016-12-25T09:27:17.434Z,86.74
2016-12-25T09:27:39.181Z,86.83
2016-12-25T09:28:00.939Z,86.67
2016-12-25T09:28:22.701Z,86.18
2016-12-25T09:28:44.469Z,86.16
2016-12-25T09:29:07.214Z,86.22
2016-12-25T09:29:30.327Z,86.28
2016-12-25T09:29:52.081Z,86.31
2016-12-25T09:30:13.817Z,86.31
2016-12-25T09:30:35.609Z,86.23
2016-12-25T09:30:57.367Z,86.28
2016-12-25T09:31:19.107Z,86.25
2016-12-25T09:31:40.879Z,86.18
2016-12-25T09:32:02.661Z,86.15
2016-12-25T09:32:24.415Z,86.13
2016-12-25T09:32:46.189Z,86.24
2016-12-25T09:33:07.941Z,86.24
2016-12-25T09:33:29.729Z,86.22
2016-12-25T09:33:52.976Z,86.18
2016-12-25T09:34:15.033Z,86.12
2016-12-25T09:35:03.924Z,86.20
2016-12-25T09:35:25.781Z,86.26
2016-12-25T09:35:47.864Z,86.24
2016-12-25T09:36:09.654Z,86.16
2016-12-25T09:36:32.407Z,86.10
2016-12-25T09:36:56.151Z,86.15
2016-12-25T09:37:17.938Z,86.19
2016-12-25T09:37:39.936Z,86.12
2016-12-25T09:38:01.678Z,86.09
2016-12-25T09:38:23.438Z,86.12
2016-12-25T09:38:45.190Z,85.96
2016-12-25T09:39:06.938Z,85.92
2016-12-25T09:39:28.688Z,85.89
2016-12-25T09:39:50.431Z,85.93
2016-12-25T09:40:12.183Z,85.96
2016-12-25T09:40:33.930Z,85.92
2016-12-25T09:40:55.680Z,85.95
2016-12-25T09:41:17.440Z,85.99
2016-12-25T09:41:39.200Z,85.97
2016-12-25T09:42:01.105Z,85.74
2016-12-25T09:42:22.863Z,85.73
2016-12-25T09:42:44.612Z,85.65
2016-12-25T09:43:07.364Z,85.57
2016-12-25T09:43:29.314Z,85.71
2016-12-25T09:43:51.165Z,85.69
2016-12-25T09:44:12.907Z,85.62
2016-12-25T09:44:34.635Z,85.54
2016-12-25T09:44:56.393Z,85.49
2016-12-25T09:45:18.134Z,85.55
2016-12-25T09:45:39.904Z,85.71
2016-12-25T09:46:01.649Z,85.61
2016-12-25T09:46:23.391Z,85.69
2016-12-25T09:46:45.148Z,85.55
2016-12-25T09:47:06.965Z,85.46
2016-12-25T09:47:28.700Z,85.49
2016-12-25T09:47:50.520Z,85.56
2016-12-25T09:48:12.290Z,85.48
2016-12-25T09:48:34.064Z,85.43
2016-12-25T09:48:57.025Z,85.49
2016-12-25T09:49:18.754Z,85.45
2016-12-25T09:49:40.502Z,85.39
2016-12-25T09:50:02.272Z,85.34
2016-12-25T09:50:24.011Z,85.39
2016-12-25T09:50:45.742Z,85.42
2016-12-25T09:51:07.478Z,85.51
2016-12-25T09:51:34.984Z,85.39
2016-12-25T09:51:56.727Z,85.37
2016-12-25T09:52:18.468Z,85.45
2016-12-25T09:52:40.234Z,85.34
2016-12-25T09:53:01.974Z,85.45
2016-12-25T09:53:23.717Z,85.38
2016-12-25T09:53:45.476Z,85.44
2016-12-25T09:54:07.203Z,85.41
2016-12-25T09:54:29.043Z,85.52
2016-12-25T09:54:51.211Z,85.57
2016-12-25T09:55:13.342Z,85.62
2016-12-25T09:56:07.419Z,85.59
2016-12-25T09:56:29.377Z,85.58
2016-12-25T09:56:51.312Z,85.48
2016-12-25T09:57:14.128Z,85.52
2016-12-25T09:57:36.507Z,85.33
2016-12-25T09:57:58.720Z,85.38
2016-12-25T09:58:20.638Z,85.41
2016-12-25T09:58:42.386Z,85.38
2016-12-25T09:59:04.109Z,85.35
2016-12-25T09:59:25.889Z,85.21
2016-12-25T09:59:47.634Z,85.16
2016-12-25T10:00:09.431Z,85.15
2016-12-25T10:00:31.168Z,85.15
2016-12-25T10:00:52.940Z,85.09
2016-12-25T10:01:14.710Z,85.12
2016-12-25T10:01:36.470Z,85.09
2016-12-25T10:01:58.217Z,85.15
2016-12-25T10:02:19.958Z,85.31
2016-12-25T10:02:41.704Z,85.21
2016-12-25T10:03:03.479Z,85.22
2016-12-25T10:03:25.248Z,85.21
2016-12-25T10:03:47.032Z,85.31
2016-12-25T10:04:08.890Z,85.38
2016-12-25T10:04:30.649Z,85.44
2016-12-25T10:04:52.398Z,85.50
2016-12-25T10:05:14.121Z,85.33
2016-12-25T10:05:40.629Z,85.15
2016-12-25T10:06:02.372Z,85.21
2016-12-25T10:06:24.184Z,85.08
2016-12-25T10:06:45.919Z,84.93
2016-12-25T10:07:07.656Z,84.98
2016-12-25T10:07:29.404Z,84.95
2016-12-25T10:07:55.914Z,84.90
2016-12-25T10:08:17.659Z,84.88
2016-12-25T10:08:39.624Z,84.70
2016-12-25T10:09:01.428Z,84.75
2016-12-25T10:09:23.167Z,84.74
2016-12-25T10:09:44.907Z,84.66
2016-12-25T10:10:06.644Z,84.45
2016-12-25T10:10:28.380Z,84.18
2016-12-25T10:10:50.251Z,84.23
2016-12-25T10:11:12.328Z,84.12
2016-12-25T10:11:34.086Z,84.27
2016-12-25T10:11:55.820Z,84.27
2016-12-25T10:12:17.569Z,84.34
2016-12-25T10:12:39.310Z,84.40
2016-12-25T10:13:01.054Z,84.45
2016-12-25T10:13:22.792Z,84.61
2016-12-25T10:13:44.532Z,84.61
2016-12-25T10:14:06.339Z,84.60
2016-12-25T10:14:28.086Z,84.51
2016-12-25T10:14:49.820Z,84.50
2016-12-25T10:15:11.579Z,84.59
2016-12-25T10:15:33.311Z,84.67
2016-12-25T10:15:55.047Z,84.62
2016-12-25T10:16:16.796Z,84.64
2016-12-25T10:16:38.611Z,84.75
2016-12-25T10:17:00.358Z,84.69
2016-12-25T10:17:22.132Z,84.76
2016-12-25T10:17:43.885Z,84.68
2016-12-25T10:18:05.644Z,84.69
2016-12-25T10:18:27.432Z,84.69
2016-12-25T10:18:49.166Z,84.40
2016-12-25T10:19:10.911Z,84.51
2016-12-25T10:19:32.685Z,84.59
2016-12-25T10:19:54.453Z,84.49
2016-12-25T10:20:16.199Z,84.61
2016-12-25T10:20:37.967Z,84.48
2016-12-25T10:20:59.721Z,84.50
2016-12-25T10:21:21.490Z,84.55
2016-12-25T10:21:43.282Z,84.60
2016-12-25T10:22:05.166Z,84.51
2016-12-25T10:22:27.224Z,84.36
2016-12-25T10:22:49.010Z,84.34
2016-12-25T10:23:10.782Z,84.38
2016-12-25T10:23:32.534Z,84.43
2016-12-25T10:23:54.266Z,84.48
2016-12-25T10:24:16.004Z,84.33
2016-12-25T10:24:37.754Z,84.42
2016-12-25T10:24:59.502Z,84.46
2016-12-25T10:25:21.242Z,84.29
2016-12-25T10:25:43.085Z,84.37
2016-12-25T10:26:04.819Z,84.47
2016-12-25T10:26:26.565Z,84.42
2016-12-25T10:26:53.084Z,84.43
2016-12-25T10:27:14.818Z,84.39
2016-12-25T10:27:36.590Z,84.52
2016-12-25T10:27:58.343Z,84.46
2016-12-25T10:28:20.090Z,84.37
2016-12-25T10:28:41.849Z,84.46
2016-12-25T10:29:03.616Z,84.65
2016-12-25T10:29:25.377Z,84.49
2016-12-25T10:29:47.143Z,84.48
2016-12-25T10:30:08.878Z,84.40
2016-12-25T10:30:30.689Z,84.43
2016-12-25T10:30:52.525Z,84.52
2016-12-25T10:31:14.553Z,84.28
2016-12-25T10:31:36.299Z,84.43
2016-12-25T10:31:58.030Z,84.23
2016-12-25T10:32:19.792Z,84.21
2016-12-25T10:32:41.535Z,84.27
2016-12-25T10:33:04.282Z,84.27
2016-12-25T10:33:26.570Z,84.28
2016-12-25T10:33:48.366Z,84.32
2016-12-25T10:34:10.122Z,84.48
2016-12-25T10:34:31.888Z,84.50
2016-12-25T10:34:53.642Z,84.54
2016-12-25T10:35:15.451Z,84.48
2016-12-25T10:35:37.187Z,84.41
2016-12-25T10:35:58.922Z,84.41
2016-12-25T10:36:20.692Z,84.32
2016-12-25T10:36:42.446Z,84.35
2016-12-25T10:37:04.187Z,84.30
2016-12-25T10:37:25.944Z,84.30
2016-12-25T10:37:47.688Z,84.19
2016-12-25T10:38:09.429Z,84.12
2016-12-25T10:38:31.278Z,84.22
2016-12-25T10:38:53.019Z,84.17
2016-12-25T10:39:14.755Z,84.22
2016-12-25T10:39:36.554Z,84.25
2016-12-25T10:39:58.441Z,84.28
2016-12-25T10:40:46.860Z,84.25
2016-12-25T10:41:08.600Z,84.17
2016-12-25T10:41:30.343Z,84.18
2016-12-25T10:41:52.092Z,84.19
2016-12-25T10:42:13.870Z,84.25
2016-12-25T10:42:35.634Z,84.24
2016-12-25T10:42:57.388Z,84.35
2016-12-25T10:43:19.147Z,84.34
2016-12-25T10:43:40.927Z,84.32
2016-12-25T10:44:02.695Z,84.31
2016-12-25T10:44:24.437Z,84.31
2016-12-25T10:44:46.251Z,84.20
2016-12-25T10:45:11.444Z,84.16
2016-12-25T10:45:33.299Z,84.10
2016-12-25T10:45:55.037Z,84.09
2016-12-25T10:46:16.786Z,84.06
2016-12-25T10:46:38.525Z,84.10
2016-12-25T10:47:00.272Z,84.20
2016-12-25T10:47:22.023Z,84.27
2016-12-25T10:47:43.777Z,84.24
2016-12-25T10:48:05.517Z,84.23
2016-12-25T10:48:27.261Z,84.25
2016-12-25T10:48:50.058Z,84.16
2016-12-25T10:49:11.797Z,84.16
2016-12-25T10:49:33.532Z,84.13
2016-12-25T10:49:55.291Z,84.19
2016-12-25T10:50:17.046Z,84.04
2016-12-25T10:50:38.781Z,84.08
2016-12-25T10:51:00.591Z,83.94
2016-12-25T10:51:22.350Z,84.06
2016-12-25T10:51:44.289Z,84.00
2016-12-25T10:52:06.166Z,83.97
2016-12-25T10:52:27.895Z,84.07
2016-12-25T10:52:49.666Z,84.06
2016-12-25T10:53:11.468Z,84.07
2016-12-25T10:53:33.212Z,83.99
2016-12-25T10:53:55.097Z,83.85
2016-12-25T10:54:17.502Z,83.83
2016-12-25T10:54:39.240Z,83.59
2016-12-25T10:55:00.976Z,83.74
2016-12-25T10:55:22.725Z,83.85
2016-12-25T10:55:44.464Z,83.71
2016-12-25T10:56:06.214Z,83.77
2016-12-25T10:56:27.959Z,83.84
2016-12-25T10:56:49.699Z,83.85
2016-12-25T10:57:11.442Z,83.90
2016-12-25T10:57:33.181Z,84.02
2016-12-25T10:57:54.981Z,84.06
2016-12-25T10:58:16.717Z,83.99
2016-12-25T10:58:38.494Z,83.88
2016-12-25T10:59:00.252Z,83.90
2016-12-25T10:59:21.991Z,83.92
2016-12-25T10:59:43.724Z,83.88
2016-12-25T11:00:05.467Z,83.88
2016-12-25T11:00:27.212Z,83.79
2016-12-25T11:00:50.136Z,83.84
2016-12-25T11:01:11.904Z,83.91
2016-12-25T11:01:33.701Z,83.95
2016-12-25T11:01:55.454Z,84.01
2016-12-25T11:02:17.195Z,83.88
2016-12-25T11:02:38.934Z,83.93
2016-12-25T11:03:00.676Z,83.97
2016-12-25T11:03:22.456Z,84.03
2016-12-25T11:03:48.974Z,84.05
2016-12-25T11:04:10.732Z,84.04
2016-12-25T11:04:32.495Z,84.09
2016-12-25T11:04:54.243Z,84.02
2016-12-25T11:05:15.984Z,84.04
2016-12-25T11:06:09.030Z,83.88
2016-12-25T11:06:30.780Z,83.96
2016-12-25T11:06:52.579Z,83.92
2016-12-25T11:07:14.334Z,83.86
2016-12-25T11:07:36.100Z,83.93
2016-12-25T11:07:57.851Z,83.95
2016-12-25T11:08:19.631Z,83.95
2016-12-25T11:08:41.388Z,83.80
2016-12-25T11:09:03.153Z,83.84
2016-12-25T11:09:25.938Z,83.90
2016-12-25T11:09:47.697Z,83.94
2016-12-25T11:10:09.443Z,83.89
2016-12-25T11:10:31.226Z,83.97
2016-12-25T11:11:19.511Z,83.82
2016-12-25T11:11:41.263Z,83.75
2016-12-25T11:12:03.116Z,83.78
2016-12-25T11:12:24.889Z,83.83
2016-12-25T11:12:46.616Z,83.91
2016-12-25T11:13:08.353Z,83.82
2016-12-25T11:13:30.125Z,83.79
2016-12-25T11:13:51.871Z,83.77
2016-12-25T11:14:13.616Z,83.86
2016-12-25T11:14:40.131Z,83.86
2016-12-25T11:15:06.655Z,83.89
2016-12-25T11:15:28.388Z,83.95
2016-12-25T11:15:50.133Z,83.90
2016-12-25T11:16:11.877Z,83.96
2016-12-25T11:16:33.630Z,83.96
2016-12-25T11:16:55.378Z,83.89
2016-12-25T11:17:17.130Z,84.01
2016-12-25T11:17:38.918Z,83.85
2016-12-25T11:18:00.664Z,83.77
2016-12-25T11:18:27.169Z,83.68
2016-12-25T11:18:48.930Z,83.75
2016-12-25T11:19:10.703Z,83.82
2016-12-25T11:19:32.619Z,83.85
2016-12-25T11:19:54.371Z,83.86
2016-12-25T11:20:16.144Z,83.88
2016-12-25T11:20:37.886Z,83.90
2016-12-25T11:20:59.678Z,83.93
2016-12-25T11:21:21.412Z,84.05
2016-12-25T11:21:43.169Z,84.08
2016-12-25T11:22:04.939Z,83.97
2016-12-25T11:22:27.085Z,83.90
2016-12-25T11:22:48.963Z,83.85
2016-12-25T11:23:10.822Z,83.73
2016-12-25T11:23:32.575Z,83.75
2016-12-25T11:23:54.341Z,83.62
2016-12-25T11:24:16.076Z,83.75
2016-12-25T11:24:37.839Z,83.69
2016-12-25T11:24:59.568Z,83.74
2016-12-25T11:25:26.105Z,83.66
2016-12-25T11:25:47.841Z,83.78
2016-12-25T11:26:09.582Z,83.74
2016-12-25T11:26:31.344Z,83.69
2016-12-25T11:26:57.847Z,83.60
2016-12-25T11:27:19.597Z,83.63
2016-12-25T11:27:41.334Z,83.81
2016-12-25T11:28:29.614Z,83.81
2016-12-25T11:28:51.395Z,83.92
2016-12-25T11:29:13.134Z,83.93
2016-12-25T11:29:34.867Z,83.84
2016-12-25T11:29:56.634Z,83.76
2016-12-25T11:30:19.361Z,83.71
2016-12-25T11:30:41.221Z,83.74
2016-12-25T11:31:02.980Z,83.74
2016-12-25T11:31:24.776Z,83.80
2016-12-25T11:31:46.535Z,83.82
2016-12-25T11:32:08.351Z,83.79
2016-12-25T11:32:30.103Z,83.70
2016-12-25T11:32:51.866Z,83.70
2016-12-25T11:33:13.598Z,83.75
2016-12-25T11:33:35.345Z,83.76
2016-12-25T11:33:57.689Z,83.73
2016-12-25T11:34:19.791Z,83.72
2016-12-25T11:34:47.313Z,83.77
2016-12-25T11:35:15.831Z,83.76
2016-12-25T11:35:42.343Z,83.82
2016-12-25T11:36:04.097Z,83.84
2016-12-25T11:36:25.875Z,83.79
2016-12-25T11:36:47.615Z,83.80
2016-12-25T11:37:10.374Z,83.91
2016-12-25T11:37:32.121Z,83.91
2016-12-25T11:37:54.020Z,83.87
2016-12-25T11:38:16.085Z,83.85
2016-12-25T11:38:37.923Z,83.91
2016-12-25T11:38:59.681Z,83.87
2016-12-25T11:39:21.428Z,83.88
2016-12-25T11:39:43.176Z,83.84
2016-12-25T11:40:05.042Z,83.88
2016-12-25T11:40:26.839Z,83.77
2016-12-25T11:40:48.591Z,83.76
2016-12-25T11:41:10.364Z,83.73
2016-12-25T11:41:33.119Z,83.78
2016-12-25T11:41:54.867Z,83.75
2016-12-25T11:42:16.678Z,83.74
2016-12-25T11:42:38.502Z,83.84
2016-12-25T11:43:00.237Z,83.86
2016-12-25T11:43:22.014Z,83.88
2016-12-25T11:43:44.763Z,83.97
2016-12-25T11:44:06.536Z,83.89
2016-12-25T11:44:28.274Z,83.77
2016-12-25T11:44:50.098Z,83.86
2016-12-25T11:45:11.845Z,83.83
2016-12-25T11:45:33.585Z,83.79
2016-12-25T11:45:55.324Z,83.70
2016-12-25T11:46:17.082Z,83.76
2016-12-25T11:46:38.885Z,83.85
2016-12-25T11:47:00.642Z,83.83
2016-12-25T11:47:22.388Z,83.72
2016-12-25T11:47:44.149Z,83.71
2016-12-25T11:48:06.211Z,83.83
2016-12-25T11:48:28.155Z,83.82
2016-12-25T11:48:49.975Z,83.84
2016-12-25T11:49:11.710Z,83.93
2016-12-25T11:49:33.456Z,84.00
2016-12-25T11:49:59.994Z,83.90
2016-12-25T11:50:22.745Z,83.98
2016-12-25T11:50:44.489Z,83.87
2016-12-25T11:51:06.240Z,83.85
2016-12-25T11:51:27.978Z,83.92
2016-12-25T11:51:54.516Z,83.76
2016-12-25T11:52:16.240Z,83.77
2016-12-25T11:52:37.985Z,83.82
2016-12-25T11:52:59.762Z,83.98
2016-12-25T11:53:24.124Z,83.83
2016-12-25T11:53:45.875Z,83.80
2016-12-25T11:54:07.685Z,83.80
2016-12-25T11:54:32.147Z,83.82
2016-12-25T11:54:53.974Z,83.83
2016-12-25T11:55:15.962Z,83.64
2016-12-25T11:55:37.711Z,83.71
2016-12-25T11:56:00.454Z,83.58
2016-12-25T11:56:22.251Z,83.69
2016-12-25T11:56:43.990Z,83.72
2016-12-25T11:57:05.867Z,83.67
2016-12-25T11:57:27.608Z,83.63
2016-12-25T11:57:49.341Z,83.61
2016-12-25T11:58:11.078Z,83.66
2016-12-25T11:58:32.828Z,83.72
2016-12-25T11:58:54.566Z,83.79
2016-12-25T11:59:16.347Z,83.85
2016-12-25T11:59:38.092Z,83.94
2016-12-25T11:59:59.831Z,83.92
2016-12-25T12:00:21.580Z,83.97
2016-12-25T12:00:43.321Z,84.10
2016-12-25T12:01:05.094Z,84.02
2016-12-25T12:01:26.915Z,83.90
2016-12-25T12:01:48.647Z,83.88
2016-12-25T12:02:10.399Z,83.82
2016-12-25T12:02:32.147Z,83.87
2016-12-25T12:02:53.892Z,83.90
2016-12-25T12:03:15.668Z,84.03
2016-12-25T12:03:37.531Z,84.02
2016-12-25T12:03:59.569Z,83.99
2016-12-25T12:04:21.317Z,83.93
2016-12-25T12:04:43.063Z,83.99
2016-12-25T12:05:04.896Z,83.83
2016-12-25T12:05:26.654Z,83.83
2016-12-25T12:05:48.386Z,83.76
2016-12-25T12:06:10.125Z,83.79
2016-12-25T12:06:31.866Z,83.95
2016-12-25T12:06:53.604Z,83.99
2016-12-25T12:07:15.354Z,84.04
2016-12-25T12:07:37.158Z,84.01
2016-12-25T12:07:58.846Z,83.93
2016-12-25T12:08:23.568Z,83.78
2016-12-25T12:08:45.236Z,83.70
2016-12-25T12:09:07.018Z,83.63
2016-12-25T12:09:28.757Z,83.72
2016-12-25T12:09:50.499Z,83.71
2016-12-25T12:10:12.236Z,83.79
2016-12-25T12:10:33.988Z,83.81
2016-12-25T12:10:55.726Z,83.84
2016-12-25T12:11:17.466Z,83.87
2016-12-25T12:11:39.235Z,83.89
2016-12-25T12:12:00.966Z,84.00
2016-12-25T12:12:22.737Z,84.04
2016-12-25T12:12:44.539Z,83.94
2016-12-25T12:13:06.275Z,83.95
2016-12-25T12:13:28.188Z,83.96
2016-12-25T12:13:50.004Z,84.01
2016-12-25T12:14:11.761Z,83.97
2016-12-25T12:14:33.506Z,83.97
2016-12-25T12:14:55.280Z,83.86
2016-12-25T12:15:17.068Z,83.90
2016-12-25T12:15:43.575Z,83.88
2016-12-25T12:16:05.317Z,83.87
2016-12-25T12:16:27.091Z,83.91
2016-12-25T12:16:48.852Z,84.00
2016-12-25T12:17:10.580Z,84.12
2016-12-25T12:17:32.325Z,83.93
2016-12-25T12:17:54.067Z,83.93
2016-12-25T12:18:15.818Z,83.95
2016-12-25T12:18:38.038Z,83.85
2016-12-25T12:19:00.436Z,83.95
2016-12-25T12:19:22.666Z,83.87
2016-12-25T12:19:44.666Z,83.58
2016-12-25T12:20:09.131Z,83.66
2016-12-25T12:20:30.912Z,83.63
2016-12-25T12:20:52.650Z,83.73
2016-12-25T12:21:14.422Z,83.85
2016-12-25T12:21:36.167Z,83.92
2016-12-25T12:21:57.916Z,84.04
2016-12-25T12:22:19.661Z,84.05
2016-12-25T12:22:41.443Z,83.99
2016-12-25T12:23:03.198Z,83.88
2016-12-25T12:23:24.960Z,83.87
2016-12-25T12:23:46.984Z,83.78
2016-12-25T12:24:08.709Z,83.85
2016-12-25T12:24:30.438Z,83.86
2016-12-25T12:24:52.171Z,83.81
2016-12-25T12:25:13.914Z,83.77
2016-12-25T12:26:02.216Z,83.73
2016-12-25T12:26:24.104Z,83.88
2016-12-25T12:26:46.135Z,83.94
2016-12-25T12:27:07.915Z,83.85
2016-12-25T12:27:30.045Z,83.83
2016-12-25T12:27:51.875Z,83.92
2016-12-25T12:28:13.613Z,83.95
2016-12-25T12:28:35.365Z,83.88
2016-12-25T12:28:57.157Z,83.95
2016-12-25T12:29:18.896Z,83.91
2016-12-25T12:29:40.668Z,83.82
2016-12-25T12:30:02.430Z,83.89
2016-12-25T12:30:24.405Z,84.01
2016-12-25T12:30:46.192Z,84.08
2016-12-25T12:31:07.932Z,84.08
2016-12-25T12:31:29.676Z,84.00
2016-12-25T12:31:51.414Z,84.08
2016-12-25T12:32:13.177Z,84.14
2016-12-25T12:32:35.025Z,83.96
2016-12-25T12:32:56.760Z,83.93
2016-12-25T12:33:18.497Z,83.99
2016-12-25T12:33:41.228Z,84.02
2016-12-25T12:34:02.983Z,83.99
2016-12-25T12:34:24.728Z,83.95
2016-12-25T12:34:46.470Z,83.83
2016-12-25T12:35:08.346Z,83.86
2016-12-25T12:35:30.256Z,83.84
2016-12-25T12:35:52.153Z,83.89
2016-12-25T12:36:13.912Z,83.99
2016-12-25T12:36:35.663Z,83.93
2016-12-25T12:36:57.408Z,83.98
2016-12-25T12:37:19.136Z,84.06
2016-12-25T12:37:40.892Z,84.10
2016-12-25T12:38:02.638Z,84.06
2016-12-25T12:38:24.382Z,84.06
2016-12-25T12:38:46.187Z,84.15
2016-12-25T12:39:07.960Z,84.06
2016-12-25T12:39:29.749Z,84.10
2016-12-25T12:39:51.490Z,84.04
2016-12-25T12:40:13.221Z,84.12
2016-12-25T12:40:34.967Z,84.14
2016-12-25T12:41:01.533Z,84.12
2016-12-25T12:41:24.284Z,84.25
2016-12-25T12:41:46.032Z,84.19
2016-12-25T12:42:07.842Z,83.94
2016-12-25T12:42:29.583Z,83.89
2016-12-25T12:42:51.354Z,84.00
2016-12-25T12:43:13.138Z,83.95
2016-12-25T12:43:34.884Z,84.00
2016-12-25T12:43:56.638Z,84.09
2016-12-25T12:44:18.386Z,84.09
2016-12-25T12:44:40.125Z,84.20
2016-12-25T12:45:01.861Z,84.15
2016-12-25T12:45:23.642Z,84.12
2016-12-25T12:45:45.373Z,84.09
2016-12-25T12:46:07.162Z,84.11
2016-12-25T12:46:28.929Z,84.21
2016-12-25T12:46:50.729Z,84.12
2016-12-25T12:47:12.477Z,84.07
2016-12-25T12:47:34.235Z,84.11
2016-12-25T12:47:55.969Z,84.15
2016-12-25T12:48:17.734Z,83.98
2016-12-25T12:48:39.486Z,84.06
2016-12-25T12:49:01.215Z,84.07
2016-12-25T12:49:22.980Z,84.12
2016-12-25T12:49:44.743Z,84.12
2016-12-25T12:50:06.487Z,83.92
2016-12-25T12:50:28.304Z,83.91
2016-12-25T12:50:50.044Z,84.02
2016-12-25T12:51:11.800Z,84.07
2016-12-25T12:51:38.305Z,83.96
2016-12-25T12:52:00.047Z,83.92
2016-12-25T12:52:21.792Z,83.89
2016-12-25T12:52:43.531Z,84.06
2016-12-25T12:53:05.288Z,84.07
2016-12-25T12:53:27.026Z,84.06
2016-12-25T12:53:48.860Z,84.08
2016-12-25T12:54:10.694Z,84.13
2016-12-25T12:54:32.467Z,84.20
2016-12-25T12:54:54.209Z,84.21
2016-12-25T12:55:15.960Z,84.22
2016-12-25T12:55:37.730Z,84.20
2016-12-25T12:55:59.477Z,84.20
2016-12-25T12:56:21.229Z,84.24
2016-12-25T12:56:43.131Z,84.21
2016-12-25T12:57:05.141Z,84.27
2016-12-25T12:57:26.899Z,84.29
2016-12-25T12:57:48.631Z,84.17
2016-12-25T12:58:10.365Z,84.15
2016-12-25T12:58:32.209Z,84.16
2016-12-25T12:58:54.309Z,84.19
2016-12-25T12:59:16.044Z,84.24
2016-12-25T12:59:37.795Z,84.31
2016-12-25T12:59:59.557Z,84.33
2016-12-25T13:00:21.440Z,84.37
2016-12-25T13:00:43.328Z,84.35
2016-12-25T13:01:05.490Z,84.45
2016-12-25T13:01:27.248Z,84.38
2016-12-25T13:01:49.026Z,84.49
2016-12-25T13:02:11.008Z,84.49
2016-12-25T13:02:32.884Z,84.42
2016-12-25T13:02:54.779Z,84.45
2016-12-25T13:03:16.579Z,84.48
2016-12-25T13:03:38.399Z,84.26
2016-12-25T13:04:00.140Z,84.40
2016-12-25T13:04:21.890Z,84.33
2016-12-25T13:04:43.665Z,84.29
2016-12-25T13:05:05.556Z,84.25
2016-12-25T13:05:27.444Z,84.16
2016-12-25T13:05:50.327Z,84.19
2016-12-25T13:06:12.119Z,84.24
2016-12-25T13:06:33.872Z,84.32
2016-12-25T13:06:55.623Z,84.27
2016-12-25T13:07:17.372Z,84.25
2016-12-25T13:07:43.880Z,84.20
2016-12-25T13:08:05.892Z,84.25
2016-12-25T13:08:27.637Z,84.20
2016-12-25T13:08:49.373Z,84.20
2016-12-25T13:09:11.113Z,84.29
2016-12-25T13:09:32.862Z,84.23
2016-12-25T13:09:55.605Z,84.29
2016-12-25T13:10:17.402Z,84.30
2016-12-25T13:10:39.283Z,84.37
2016-12-25T13:11:01.249Z,84.47
2016-12-25T13:11:23.167Z,84.54
2016-12-25T13:11:45.037Z,84.57
2016-12-25T13:12:06.931Z,84.68
2016-12-25T13:12:28.712Z,84.71
2016-12-25T13:12:50.460Z,84.60
2016-12-25T13:13:12.198Z,84.60
2016-12-25T13:13:33.970Z,84.58
2016-12-25T13:13:55.710Z,84.62
2016-12-25T13:14:17.462Z,84.50
2016-12-25T13:14:39.327Z,84.36
2016-12-25T13:15:01.087Z,84.46
2016-12-25T13:15:22.868Z,84.41
2016-12-25T13:15:44.622Z,84.37
2016-12-25T13:16:11.129Z,84.43
2016-12-25T13:16:32.860Z,84.50
2016-12-25T13:16:54.643Z,84.44
2016-12-25T13:17:16.456Z,84.39
2016-12-25T13:17:38.224Z,84.45
2016-12-25T13:17:59.961Z,84.44
2016-12-25T13:18:21.685Z,84.45
2016-12-25T13:18:43.470Z,84.38
2016-12-25T13:19:05.204Z,84.39
2016-12-25T13:19:26.943Z,84.29
2016-12-25T13:19:51.344Z,84.20
2016-12-25T13:20:13.186Z,84.33
2016-12-25T13:20:34.951Z,84.34
2016-12-25T13:20:56.690Z,84.24
2016-12-25T13:21:18.448Z,84.30